Time;durP1;ratioP1;P1;durP2;ratioP2;P2;SDS_P1;SDS_P2;PMS_P1;PMS_P2;Temp;Humidity;BMP_temperature;BMP_pressure;BME280_temperature;BME280_humidity;BME280_pressure;Samples;Min_cycle;Max_cycle;Signal;HPM_P1;HPM_P2
2023/03/16 00:00:24;;;;;;;6.35;3.70;;;2.40;75.60;;;;;;5035154;28;20517;-78
2023/03/16 00:02:49;;;;;;;8.05;3.33;;;2.40;75.50;;;;;;5035352;28;20615;-76
2023/03/16 00:05:15;;;;;;;7.22;3.28;;;2.40;75.30;;;;;;5035218;28;20060;-77
2023/03/16 00:07:41;;;;;;;9.32;3.17;;;2.50;75.10;;;;;;5035201;28;20032;-76
2023/03/16 00:10:08;;;;;;;9.27;3.30;;;2.50;74.60;;;;;;5035182;28;20083;-77
2023/03/16 00:12:34;;;;;;;7.72;3.25;;;2.40;74.20;;;;;;5035121;28;20018;-77
2023/03/16 00:15:00;;;;;;;6.03;2.95;;;2.50;74.20;;;;;;5035046;28;20037;-76
2023/03/16 00:17:26;;;;;;;6.72;3.38;;;2.50;74.20;;;;;;5033751;28;20031;-77
2023/03/16 00:19:53;;;;;;;7.28;3.10;;;2.50;74.10;;;;;;5034855;28;20025;-77
2023/03/16 00:22:29;;;;;;;6.47;2.72;;;2.50;73.90;;;;;;5035228;28;20061;-73
2023/03/16 00:24:56;;;;;;;6.88;3.03;;;2.50;73.90;;;;;;5034915;28;20040;-78
2023/03/16 00:27:23;;;;;;;6.63;3.28;;;2.50;73.70;;;;;;5034807;28;20049;-78
2023/03/16 00:29:54;;;;;;;4.97;2.97;;;2.50;73.80;;;;;;5034887;28;20020;-78
2023/03/16 00:32:23;;;;;;;6.97;2.78;;;2.50;74.00;;;;;;5034835;28;20028;-76
2023/03/16 00:34:50;;;;;;;8.52;3.00;;;2.50;74.60;;;;;;5033420;28;20025;-75
2023/03/16 00:37:17;;;;;;;6.78;3.40;;;2.50;73.90;;;;;;5034374;28;20074;-76
2023/03/16 00:39:44;;;;;;;10.30;3.20;;;2.50;74.00;;;;;;5034690;28;20026;-76
2023/03/16 00:42:11;;;;;;;8.93;3.35;;;2.50;73.90;;;;;;5034440;28;20096;-73
2023/03/16 00:44:37;;;;;;;8.38;2.85;;;2.50;73.90;;;;;;5033988;28;20028;-75
2023/03/16 00:47:05;;;;;;;7.40;3.45;;;2.50;74.00;;;;;;5034173;28;20516;-77
2023/03/16 00:49:33;;;;;;;8.60;2.97;;;2.50;73.90;;;;;;5034656;28;20033;-75
2023/03/16 00:52:13;;;;;;;8.35;3.42;;;2.60;73.90;;;;;;5034395;28;20029;-75
2023/03/16 00:54:41;;;;;;;8.98;3.00;;;2.50;73.90;;;;;;5034333;28;20018;-79
2023/03/16 00:57:08;;;;;;;7.50;3.05;;;2.50;74.30;;;;;;5032953;28;20049;-78
2023/03/16 00:59:36;;;;;;;5.43;3.15;;;2.50;74.30;;;;;;5032994;28;20022;-75
2023/03/16 01:02:03;;;;;;;7.57;3.08;;;2.50;74.20;;;;;;5034205;28;20029;-76
2023/03/16 01:04:28;;;;;;;7.05;2.90;;;2.60;74.10;;;;;;5033594;28;20064;-74
2023/03/16 01:06:54;;;;;;;8.07;3.33;;;2.60;74.10;;;;;;5033944;28;20049;-74
2023/03/16 01:09:20;;;;;;;6.82;3.53;;;2.60;74.10;;;;;;5034068;28;20041;-76
2023/03/16 01:11:48;;;;;;;5.40;3.22;;;2.60;73.90;;;;;;5033859;28;20029;-77
2023/03/16 01:14:14;;;;;;;6.75;3.20;;;2.60;73.90;;;;;;5034139;28;20079;-76
2023/03/16 01:16:40;;;;;;;9.55;3.42;;;2.60;74.00;;;;;;5033927;28;20025;-77
2023/03/16 01:19:05;;;;;;;9.48;3.38;;;2.60;74.10;;;;;;5034075;28;20386;-75
2023/03/16 01:21:32;;;;;;;5.70;3.38;;;2.60;74.10;;;;;;5034049;28;20164;-75
2023/03/16 01:23:58;;;;;;;8.80;3.28;;;2.50;74.50;;;;;;5033832;28;20018;-74
2023/03/16 01:26:24;;;;;;;5.35;3.40;;;2.60;74.50;;;;;;5033791;28;20359;-72
2023/03/16 01:28:49;;;;;;;6.20;3.45;;;2.50;74.50;;;;;;5033732;28;20096;-75
2023/03/16 01:31:15;;;;;;;7.32;4.07;;;2.50;74.50;;;;;;5033591;28;20026;-74
2023/03/16 01:33:41;;;;;;;7.45;3.47;;;2.50;74.40;;;;;;5033675;28;20033;-73
2023/03/16 01:36:10;;;;;;;8.50;4.07;;;2.50;74.40;;;;;;5033579;28;20032;-75
2023/03/16 01:38:36;;;;;;;6.72;3.65;;;2.50;74.60;;;;;;5033299;28;20052;-72
2023/03/16 01:41:03;;;;;;;12.95;5.03;;;2.50;75.00;;;;;;5033396;28;20048;-74
2023/03/16 01:43:32;;;;;;;8.48;4.40;;;2.50;75.10;;;;;;5033625;28;20083;-72
2023/03/16 01:46:03;;;;;;;12.00;4.88;;;2.40;75.40;;;;;;5033488;28;20105;-73
2023/03/16 01:48:36;;;;;;;8.80;5.03;;;2.40;75.90;;;;;;5034361;28;20021;-73
2023/03/16 01:51:26;;;;;;;10.13;4.97;;;2.40;75.70;;;;;;5032862;28;20459;-74
2023/03/16 01:54:00;;;;;;;9.90;5.30;;;2.40;75.80;;;;;;5032085;28;20033;-73
2023/03/16 01:56:33;;;;;;;9.43;5.57;;;2.40;75.70;;;;;;5032351;28;20025;-73
2023/03/16 01:59:01;;;;;;;8.98;5.70;;;2.40;75.70;;;;;;5033301;28;20026;-73
2023/03/16 02:01:27;;;;;;;9.45;5.18;;;2.40;75.80;;;;;;5033102;28;20075;-73
2023/03/16 02:04:12;;;;;;;12.30;5.25;;;2.40;75.80;;;;;;5033077;28;20026;-73
2023/03/16 02:06:38;;;;;;;10.13;5.60;;;2.40;75.80;;;;;;5032096;28;20025;-74
2023/03/16 02:09:05;;;;;;;11.60;5.65;;;2.40;75.70;;;;;;5031818;28;20056;-73
2023/03/16 02:11:31;;;;;;;11.50;6.07;;;2.40;75.80;;;;;;5033143;28;20108;-71
2023/03/16 02:14:05;;;;;;;8.50;5.30;;;2.40;75.90;;;;;;5032813;28;20100;-72
2023/03/16 02:16:30;;;;;;;8.77;5.82;;;2.40;75.80;;;;;;5033048;28;20032;-71
2023/03/16 02:18:56;;;;;;;11.27;5.55;;;2.40;75.80;;;;;;5033298;28;20393;-73
2023/03/16 02:21:38;;;;;;;8.82;5.55;;;2.40;75.80;;;;;;5032910;28;20033;-72
2023/03/16 02:24:04;;;;;;;7.93;5.35;;;2.40;75.70;;;;;;5032995;28;20033;-72
2023/03/16 02:26:46;;;;;;;8.48;5.80;;;2.40;75.80;;;;;;5032961;28;20029;-72
2023/03/16 02:29:26;;;;;;;10.52;5.35;;;2.40;76.00;;;;;;5032898;28;20021;-72
2023/03/16 02:31:53;;;;;;;9.60;5.90;;;2.40;75.90;;;;;;5033026;28;20040;-75
2023/03/16 02:34:19;;;;;;;8.85;5.25;;;2.40;75.60;;;;;;5032880;28;20083;-72
2023/03/16 02:36:46;;;;;;;8.48;5.50;;;2.40;75.60;;;;;;5032776;28;20026;-72
2023/03/16 02:39:12;;;;;;;9.63;5.85;;;2.40;75.60;;;;;;5031422;28;20037;-71
2023/03/16 02:41:38;;;;;;;9.93;5.97;;;2.40;75.70;;;;;;5032837;28;20041;-74
2023/03/16 02:44:13;;;;;;;9.20;5.65;;;2.40;75.70;;;;;;5032760;28;20025;-73
2023/03/16 02:46:42;;;;;;;;;;;2.30;75.70;;;;;;5033372;28;20030;-74
2023/03/16 02:49:17;;;;;;;9.43;6.00;;;2.30;75.80;;;;;;5032742;28;20378;-73
2023/03/16 02:51:45;;;;;;;7.07;5.38;;;2.30;76.00;;;;;;5032529;28;20033;-73
2023/03/16 02:54:11;;;;;;;8.98;6.53;;;2.30;75.90;;;;;;5032676;28;20087;-74
2023/03/16 02:56:37;;;;;;;9.15;6.22;;;2.40;76.10;;;;;;5031433;28;20022;-74
2023/03/16 02:59:02;;;;;;;9.27;5.78;;;2.40;76.00;;;;;;5015180;28;20363;-73
2023/03/16 03:01:28;;;;;;;7.07;5.40;;;2.40;76.00;;;;;;5032471;28;20121;-73
2023/03/16 03:03:53;;;;;;;8.45;6.10;;;2.40;75.60;;;;;;5032689;28;20033;-73
2023/03/16 03:06:19;;;;;;;9.25;6.38;;;2.40;76.40;;;;;;5031685;28;20446;-73
2023/03/16 03:08:44;;;;;;;8.02;5.43;;;2.40;75.40;;;;;;5036248;28;20033;-73
2023/03/16 03:11:10;;;;;;;9.48;6.45;;;2.40;75.40;;;;;;5035943;28;20029;-73
2023/03/16 03:13:38;;;;;;;10.10;6.82;;;2.40;75.40;;;;;;5036260;28;20017;-73
2023/03/16 03:16:03;;;;;;;12.38;6.45;;;2.30;75.60;;;;;;5036171;28;20025;-74
2023/03/16 03:18:29;;;;;;;14.07;7.10;;;2.30;75.80;;;;;;5034861;28;20075;-73
2023/03/16 03:20:55;;;;;;;10.05;6.22;;;2.30;75.80;;;;;;5035855;28;20033;-73
2023/03/16 03:23:20;;;;;;;11.25;6.28;;;2.30;75.80;;;;;;5034889;28;20429;-73
2023/03/16 03:25:46;;;;;;;10.63;6.82;;;2.20;76.00;;;;;;5036031;28;20109;-73
2023/03/16 03:28:12;;;;;;;8.30;5.60;;;2.30;76.40;;;;;;5036373;28;20431;-73
2023/03/16 03:30:38;;;;;;;11.95;6.60;;;2.20;76.20;;;;;;5035939;28;20108;-74
2023/03/16 03:33:03;;;;;;;9.93;6.53;;;2.20;76.30;;;;;;5035895;28;20026;-77
2023/03/16 03:35:29;;;;;;;10.90;7.15;;;2.20;76.20;;;;;;5036034;28;20055;-76
2023/03/16 03:37:54;;;;;;;11.73;6.93;;;2.20;76.10;;;;;;5035700;28;20445;-75
2023/03/16 03:40:20;;;;;;;11.20;6.90;;;2.20;76.20;;;;;;5035728;28;20028;-75
2023/03/16 03:42:46;;;;;;;12.82;6.72;;;2.20;76.20;;;;;;5035712;28;20063;-75
2023/03/16 03:45:13;;;;;;;11.35;7.10;;;2.20;76.20;;;;;;5035593;28;20101;-74
2023/03/16 03:47:40;;;;;;;7.63;6.57;;;2.20;76.20;;;;;;5035285;28;20479;-78
2023/03/16 03:50:07;;;;;;;12.60;7.10;;;2.10;76.20;;;;;;5034391;28;20033;-76
2023/03/16 03:52:32;;;;;;;12.75;7.93;;;2.10;77.00;;;;;;5035539;28;20045;-73
2023/03/16 03:54:58;;;;;;;14.60;8.48;;;2.00;76.90;;;;;;5035433;28;20410;-75
2023/03/16 03:57:23;;;;;;;12.30;8.35;;;2.00;76.90;;;;;;5035317;28;20022;-73
2023/03/16 03:59:49;;;;;;;10.50;8.50;;;2.00;77.10;;;;;;5035283;28;20029;-78
2023/03/16 04:02:15;;;;;;;14.85;8.38;;;2.00;77.00;;;;;;5035346;28;20039;-74
2023/03/16 04:04:41;;;;;;;11.43;8.38;;;2.00;76.90;;;;;;5035272;28;20024;-76
2023/03/16 04:07:07;;;;;;;12.82;8.40;;;2.10;76.90;;;;;;5035190;28;20025;-78
2023/03/16 04:09:35;;;;;;;11.80;9.00;;;2.00;77.00;;;;;;5035246;28;20021;-73
2023/03/16 04:12:01;;;;;;;15.98;8.90;;;2.10;76.80;;;;;;5033937;28;20036;-74
2023/03/16 04:14:28;;;;;;;13.48;9.65;;;2.00;76.60;;;;;;5035116;28;20030;-77
2023/03/16 04:16:54;;;;;;;13.75;8.85;;;2.00;76.80;;;;;;5035034;28;20022;-75
2023/03/16 04:19:21;;;;;;;13.90;8.85;;;2.00;76.90;;;;;;5032773;28;20117;-73
2023/03/16 04:21:47;;;;;;;12.13;8.63;;;2.00;76.80;;;;;;5034845;28;20033;-73
2023/03/16 04:24:13;;;;;;;12.98;8.63;;;2.00;76.70;;;;;;5034821;28;20025;-74
2023/03/16 04:26:40;;;;;;;10.07;8.27;;;2.00;76.70;;;;;;5035074;28;20036;-73
2023/03/16 04:29:05;;;;;;;11.02;8.27;;;2.10;76.60;;;;;;5034837;28;20461;-73
2023/03/16 04:31:31;;;;;;;11.25;8.57;;;2.00;76.70;;;;;;5034815;28;20109;-73
2023/03/16 04:33:56;;;;;;;10.52;8.20;;;2.00;76.90;;;;;;5034475;28;20056;-74
2023/03/16 04:36:23;;;;;;;11.27;8.13;;;2.00;76.90;;;;;;5034689;28;20025;-74
2023/03/16 04:38:49;;;;;;;11.23;8.13;;;2.00;76.70;;;;;;5033227;28;20045;-73
2023/03/16 04:41:14;;;;;;;13.38;8.68;;;2.00;76.70;;;;;;5033182;28;20450;-74
2023/03/16 04:43:42;;;;;;;15.07;8.02;;;2.00;76.70;;;;;;5034615;28;20065;-73
2023/03/16 04:46:08;;;;;;;9.52;6.90;;;2.00;76.50;;;;;;5034423;28;20013;-73
2023/03/16 04:48:34;;;;;;;12.10;7.55;;;2.10;76.20;;;;;;5034611;28;20022;-73
2023/03/16 04:51:02;;;;;;;9.38;7.68;;;2.00;76.00;;;;;;5034379;28;20044;-73
2023/03/16 04:53:31;;;;;;;12.80;8.02;;;2.10;76.00;;;;;;5034623;28;20026;-73
2023/03/16 04:55:57;;;;;;;13.60;8.50;;;2.10;75.90;;;;;;5034185;28;20021;-73
2023/03/16 04:58:23;;;;;;;11.10;7.85;;;2.10;75.80;;;;;;5034170;28;20108;-73
2023/03/16 05:00:53;;;;;;;12.40;8.60;;;2.10;75.80;;;;;;5034160;28;20108;-74
2023/03/16 05:03:18;;;;;;;9.75;7.88;;;2.10;75.70;;;;;;5034083;28;20041;-78
2023/03/16 05:05:46;;;;;;;11.98;7.50;;;2.10;75.60;;;;;;5032782;28;20492;-74
2023/03/16 05:08:11;;;;;;;9.85;7.40;;;2.10;75.60;;;;;;5034035;28;20217;-74
2023/03/16 05:10:37;;;;;;;10.07;7.88;;;2.00;75.40;;;;;;5032691;28;20108;-74
2023/03/16 05:13:04;;;;;;;9.38;7.22;;;2.00;75.60;;;;;;5032652;28;20025;-74
2023/03/16 05:15:30;;;;;;;7.88;6.60;;;2.00;75.40;;;;;;5032648;28;20022;-72
2023/03/16 05:17:56;;;;;;;11.18;7.03;;;2.10;75.50;;;;;;5033861;28;20088;-72
2023/03/16 05:20:22;;;;;;;8.82;7.00;;;2.10;75.40;;;;;;5032584;28;20032;-72
2023/03/16 05:22:48;;;;;;;12.63;8.10;;;2.10;75.30;;;;;;5033568;28;20045;-71
2023/03/16 05:25:15;;;;;;;10.30;7.32;;;2.10;75.10;;;;;;5033703;28;20017;-71
2023/03/16 05:27:46;;;;;;;11.82;7.82;;;2.10;75.20;;;;;;5033691;28;20025;-72
2023/03/16 05:30:13;;;;;;;11.23;7.57;;;2.10;75.20;;;;;;5033561;28;20024;-72
2023/03/16 05:32:38;;;;;;;12.60;7.60;;;2.10;75.20;;;;;;5032175;28;20029;-73
2023/03/16 05:35:05;;;;;;;11.77;8.02;;;2.10;75.40;;;;;;5033565;28;20078;-71
2023/03/16 05:37:31;;;;;;;13.30;7.82;;;2.10;75.40;;;;;;5031842;28;20102;-72
2023/03/16 05:39:57;;;;;;;12.05;8.27;;;2.10;76.30;;;;;;5033438;28;20522;-71
2023/03/16 05:42:25;;;;;;;10.55;7.50;;;2.10;75.20;;;;;;5033605;28;20082;-72
2023/03/16 05:44:52;;;;;;;14.88;8.80;;;2.10;75.20;;;;;;5033408;28;20059;-72
2023/03/16 05:47:18;;;;;;;12.45;8.48;;;2.10;75.20;;;;;;5033269;28;20033;-72
2023/03/16 05:49:43;;;;;;;10.80;8.00;;;2.20;75.10;;;;;;5033369;28;20390;-73
2023/03/16 05:52:09;;;;;;;10.70;8.07;;;2.20;74.90;;;;;;5033181;28;20148;-72
2023/03/16 05:54:34;;;;;;;12.30;7.57;;;2.30;75.00;;;;;;5032972;28;20450;-72
2023/03/16 05:57:00;;;;;;;13.15;8.43;;;2.30;74.80;;;;;;5031748;28;20448;-72
2023/03/16 05:59:25;;;;;;;14.13;8.88;;;2.30;74.60;;;;;;5031698;28;20033;-72
2023/03/16 06:01:51;;;;;;;17.20;9.00;;;2.30;74.40;;;;;;5033075;28;20091;-74
2023/03/16 06:04:16;;;;;;;12.75;8.85;;;2.30;74.50;;;;;;5031931;28;20033;-72
2023/03/16 06:06:42;;;;;;;11.30;7.82;;;2.30;74.40;;;;;;5033044;28;20029;-72
2023/03/16 06:09:08;;;;;;;14.32;8.75;;;2.30;74.20;;;;;;5033074;28;20083;-72
2023/03/16 06:11:33;;;;;;;11.90;8.20;;;2.30;74.30;;;;;;5033205;28;20032;-72
2023/03/16 06:14:00;;;;;;;10.38;7.50;;;2.30;74.00;;;;;;5032894;28;20675;-72
2023/03/16 06:16:26;;;;;;;12.85;8.65;;;2.30;73.80;;;;;;5033099;28;20033;-72
2023/03/16 06:18:51;;;;;;;11.85;9.00;;;2.40;73.90;;;;;;5032874;28;20025;-71
2023/03/16 06:21:17;;;;;;;13.25;9.85;;;2.40;73.80;;;;;;5032624;28;20494;-71
2023/03/16 06:23:43;;;;;;;12.35;9.20;;;2.40;73.80;;;;;;5032709;28;20378;-73
2023/03/16 06:26:09;;;;;;;11.77;9.10;;;2.40;73.70;;;;;;5031224;28;20030;-71
2023/03/16 06:28:35;;;;;;;12.35;9.50;;;2.50;73.70;;;;;;5034041;28;20429;-71
2023/03/16 06:31:00;;;;;;;13.80;9.02;;;2.50;73.40;;;;;;5032341;28;20110;-72
2023/03/16 06:33:26;;;;;;;13.85;8.93;;;2.60;73.00;;;;;;5032337;28;20037;-72
2023/03/16 06:35:52;;;;;;;15.52;8.82;;;2.70;73.30;;;;;;5032503;28;20030;-72
2023/03/16 06:38:18;;;;;;;11.00;8.27;;;2.80;73.00;;;;;;5032265;28;20053;-72
2023/03/16 06:40:43;;;;;;;13.23;8.15;;;2.80;72.50;;;;;;5032926;28;20030;-72
2023/03/16 06:43:09;;;;;;;11.82;8.55;;;2.90;72.20;;;;;;5036330;28;20445;-72
2023/03/16 06:45:35;;;;;;;13.38;8.50;;;2.90;71.60;;;;;;5036513;28;20017;-73
2023/03/16 06:48:00;;;;;;;12.48;7.57;;;3.00;71.30;;;;;;5035421;28;20032;-73
2023/03/16 06:50:27;;;;;;;10.27;7.32;;;3.00;70.80;;;;;;5036364;28;20521;-74
2023/03/16 06:52:52;;;;;;;10.00;7.70;;;3.00;70.80;;;;;;5036523;28;20021;-73
2023/03/16 06:55:18;;;;;;;9.93;7.32;;;3.10;70.60;;;;;;5036440;28;20095;-73
2023/03/16 06:57:43;;;;;;;10.95;7.05;;;3.20;70.20;;;;;;5036313;28;20030;-73
2023/03/16 07:00:12;;;;;;;11.77;7.50;;;3.20;69.70;;;;;;5036333;28;20037;-73
2023/03/16 07:02:39;;;;;;;11.70;8.07;;;3.30;69.20;;;;;;5036175;28;20486;-73
2023/03/16 07:05:06;;;;;;;12.93;7.35;;;3.30;68.90;;;;;;5036219;28;20112;-73
2023/03/16 07:07:32;;;;;;;12.73;7.25;;;3.40;68.80;;;;;;5036172;28;20029;-73
2023/03/16 07:09:58;;;;;;;11.68;7.38;;;3.50;68.90;;;;;;5036044;28;20027;-73
2023/03/16 07:12:23;;;;;;;13.48;7.85;;;3.70;68.50;;;;;;5035647;28;20032;-73
2023/03/16 07:14:50;;;;;;;12.30;7.75;;;3.80;68.10;;;;;;5034478;28;20030;-73
2023/03/16 07:17:15;;;;;;;10.15;7.00;;;3.90;67.70;;;;;;5034467;28;20386;-72
2023/03/16 07:19:42;;;;;;;9.57;5.85;;;4.00;67.10;;;;;;5035480;28;20025;-73
2023/03/16 07:22:08;;;;;;;9.65;6.10;;;4.20;66.80;;;;;;5035697;28;20033;-73
2023/03/16 07:24:33;;;;;;;9.80;6.38;;;4.30;66.40;;;;;;5035401;28;20038;-73
2023/03/16 07:26:59;;;;;;;9.02;5.80;;;4.40;65.40;;;;;;5034296;28;20071;-73
2023/03/16 07:29:24;;;;;;;9.45;4.78;;;4.50;64.90;;;;;;5035458;28;20029;-73
2023/03/16 07:31:50;;;;;;;7.88;4.35;;;4.60;63.40;;;;;;5034093;28;20124;-73
2023/03/16 07:34:15;;;;;;;7.05;4.78;;;4.60;62.40;;;;;;5035522;28;20092;-73
2023/03/16 07:36:41;;;;;;;7.57;4.35;;;4.60;61.80;;;;;;5035586;28;20105;-73
2023/03/16 07:39:06;;;;;;;9.20;4.35;;;4.70;61.90;;;;;;5035450;28;20045;-74
2023/03/16 07:41:32;;;;;;;5.75;3.90;;;4.80;61.20;;;;;;5035409;28;20037;-73
2023/03/16 07:43:57;;;;;;;4.63;3.30;;;4.90;61.30;;;;;;5035422;28;20032;-73
2023/03/16 07:46:23;;;;;;;7.57;3.72;;;5.00;60.20;;;;;;5035391;28;20525;-74
2023/03/16 07:48:49;;;;;;;7.65;3.72;;;5.10;59.60;;;;;;5035495;28;20025;-73
2023/03/16 07:51:15;;;;;;;6.05;3.60;;;5.20;59.40;;;;;;5035288;28;20044;-73
2023/03/16 07:53:40;;;;;;;6.70;3.88;;;5.20;58.30;;;;;;5032378;28;20038;-73
2023/03/16 07:56:06;;;;;;;6.28;3.58;;;5.10;58.30;;;;;;5033710;28;20051;-74
2023/03/16 07:58:32;;;;;;;7.05;3.60;;;5.20;58.00;;;;;;5034844;28;20021;-71
2023/03/16 08:00:58;;;;;;;5.07;3.15;;;5.20;58.10;;;;;;5033355;28;20033;-72
2023/03/16 08:03:25;;;;;;;7.75;3.35;;;5.40;57.90;;;;;;5033333;28;20036;-72
2023/03/16 08:05:51;;;;;;;6.25;3.50;;;5.40;57.40;;;;;;5033418;28;20029;-72
2023/03/16 08:08:17;;;;;;;3.45;2.60;;;5.50;57.00;;;;;;5034358;28;20033;-71
2023/03/16 08:10:45;;;;;;;4.70;2.70;;;5.60;57.00;;;;;;5032635;28;20029;-74
2023/03/16 08:13:11;;;;;;;6.40;2.70;;;5.60;57.00;;;;;;5032896;28;20492;-74
2023/03/16 08:15:36;;;;;;;6.65;2.58;;;6.00;59.40;;;;;;5033623;28;20525;-77
2023/03/16 08:18:05;;;;;;;6.78;2.40;;;6.30;60.20;;;;;;5033673;28;20087;-74
2023/03/16 08:20:31;;;;;;;4.18;2.33;;;6.80;62.30;;;;;;5033469;28;20021;-75
2023/03/16 08:22:57;;;;;;;5.90;2.28;;;7.30;57.40;;;;;;5034814;28;20034;-76
2023/03/16 08:25:23;;;;;;;7.22;1.95;;;7.80;53.00;;;;;;5033361;28;20029;-75
2023/03/16 08:27:49;;;;;;;8.27;2.35;;;7.90;51.80;;;;;;5033239;28;20021;-76
2023/03/16 08:30:15;;;;;;;5.38;2.35;;;8.20;52.30;;;;;;5034486;28;20030;-76
2023/03/16 08:32:41;;;;;;;6.68;1.95;;;8.50;48.10;;;;;;5016886;28;20367;-75
2023/03/16 08:35:12;;;;;;;5.88;1.90;;;8.30;47.50;;;;;;5033270;28;20029;-75
2023/03/16 08:37:38;;;;;;;3.38;1.60;;;8.40;48.80;;;;;;5033028;28;20072;-75
2023/03/16 08:40:09;;;;;;;3.00;1.63;;;8.70;48.20;;;;;;5032883;28;20482;-74
2023/03/16 08:42:35;;;;;;;2.53;1.45;;;9.00;47.70;;;;;;5032760;28;20040;-76
2023/03/16 08:45:08;;;;;;;4.05;1.27;;;9.20;45.70;;;;;;5034107;28;20044;-75
2023/03/16 08:47:34;;;;;;;3.20;1.52;;;9.40;45.60;;;;;;5033038;28;20393;-74
2023/03/16 08:50:00;;;;;;;2.25;1.02;;;9.80;43.80;;;;;;5032872;28;20465;-74
2023/03/16 08:52:26;;;;;;;3.53;1.10;;;10.00;44.60;;;;;;5032793;28;20393;-73
2023/03/16 08:54:52;;;;;;;3.88;1.08;;;10.30;42.80;;;;;;5033049;28;20474;-73
2023/03/16 08:57:17;;;;;;;3.53;0.98;;;10.10;39.70;;;;;;5032901;28;20087;-74
2023/03/16 08:59:43;;;;;;;2.50;0.98;;;9.90;41.20;;;;;;5034047;28;20474;-73
2023/03/16 09:02:13;;;;;;;3.58;0.90;;;10.10;41.50;;;;;;5033735;28;20029;-73
2023/03/16 09:04:39;;;;;;;1.83;1.00;;;9.90;39.50;;;;;;5033522;28;20025;-73
2023/03/16 09:07:04;;;;;;;3.00;1.15;;;10.10;41.40;;;;;;5033913;28;20382;-73
2023/03/16 09:09:31;;;;;;;1.85;1.02;;;10.50;40.60;;;;;;5033737;28;20029;-74
2023/03/16 09:11:57;;;;;;;1.88;0.95;;;10.70;38.20;;;;;;5033538;28;20022;-72
2023/03/16 09:14:24;;;;;;;3.55;0.88;;;10.30;37.40;;;;;;5033778;28;20045;-73
2023/03/16 09:16:49;;;;;;;2.22;1.25;;;10.10;37.90;;;;;;5033691;28;20025;-75
2023/03/16 09:19:15;;;;;;;2.80;1.13;;;9.70;38.80;;;;;;5033608;28;20633;-73
2023/03/16 09:21:41;;;;;;;2.97;1.20;;;9.70;39.50;;;;;;5033654;28;20025;-72
2023/03/16 09:24:07;;;;;;;2.58;1.00;;;9.60;39.40;;;;;;5033656;28;20018;-75
2023/03/16 09:26:34;;;;;;;2.78;1.00;;;9.50;40.30;;;;;;5033556;28;20021;-73
2023/03/16 09:28:59;;;;;;;2.42;1.30;;;9.60;40.30;;;;;;5033563;28;20614;-73
2023/03/16 09:31:25;;;;;;;2.47;1.10;;;9.60;39.50;;;;;;5032680;28;20057;-74
2023/03/16 09:33:51;;;;;;;3.67;1.15;;;9.70;38.90;;;;;;5033244;28;20032;-75
2023/03/16 09:36:17;;;;;;;2.33;1.20;;;9.70;39.00;;;;;;5033258;28;20497;-73
2023/03/16 09:38:43;;;;;;;2.03;1.02;;;9.80;41.10;;;;;;5033163;28;20458;-73
2023/03/16 09:41:33;;;;;;;2.17;1.00;;;10.00;39.40;;;;;;5033134;28;20065;-74
2023/03/16 09:44:28;;;;;;;1.02;0.60;;;10.10;38.60;;;;;;5033240;28;20444;-73
2023/03/16 09:46:55;;;;;;;2.40;1.02;;;10.40;38.30;;;;;;5033330;28;20102;-74
2023/03/16 09:49:26;;;;;;;2.03;1.20;;;10.70;37.70;;;;;;5032242;28;20037;-73
2023/03/16 09:52:18;;;;;;;4.07;1.17;;;10.90;37.30;;;;;;5033301;28;20044;-73
2023/03/16 09:55:05;;;;;;;2.95;1.13;;;11.00;36.50;;;;;;5033319;28;20029;-73
2023/03/16 09:57:39;;;;;;;2.58;0.93;;;11.00;35.80;;;;;;5032059;28;20063;-72
2023/03/16 10:00:21;;;;;;;2.17;1.17;;;11.20;37.40;;;;;;5031911;28;20060;-75
2023/03/16 10:03:24;;;;;;;4.07;1.00;;;11.40;35.40;;;;;;5031392;28;20490;-73
2023/03/16 10:06:01;;;;;;;2.03;0.73;;;11.10;35.20;;;;;;5031717;28;20053;-76
2023/03/16 10:08:34;;;;;;;1.20;0.75;;;11.20;35.20;;;;;;5031661;28;20053;-75
2023/03/16 10:11:30;;;;;;;2.60;1.02;;;11.20;34.00;;;;;;5032758;28;20021;-75
2023/03/16 10:14:00;;;;;;;5.32;0.88;;;11.10;33.40;;;;;;5032438;28;20026;-77
2023/03/16 10:16:45;;;;;;;4.15;1.08;;;11.30;34.30;;;;;;5032131;28;20100;-75
2023/03/16 10:19:40;;;;;;;1.60;0.95;;;11.10;34.30;;;;;;5032835;28;20112;-73
2023/03/16 10:22:16;;;;;;;1.92;0.80;;;11.00;33.30;;;;;;5024127;28;20490;-73
2023/03/16 10:25:11;;;;;;;1.35;0.80;;;11.00;34.10;;;;;;5031171;28;20026;-77
2023/03/16 10:27:41;;;;;;;1.70;0.90;;;11.00;34.50;;;;;;5033145;28;20362;-75
2023/03/16 10:30:17;;;;;;;7.57;1.45;;;11.20;35.10;;;;;;5031123;28;20498;-75
2023/03/16 10:32:43;;;;;;;1.13;0.80;;;11.30;34.20;;;;;;5031109;28;20017;-74
2023/03/16 10:35:22;;;;;;;0.50;0.50;;;11.30;33.40;;;;;;5032661;28;20385;-73
2023/03/16 10:37:48;;;;;;;3.92;0.80;;;11.50;33.50;;;;;;5032481;28;20038;-77
2023/03/16 10:40:15;;;;;;;2.65;1.27;;;11.90;33.80;;;;;;5032505;28;20540;-77
2023/03/16 10:42:41;;;;;;;2.17;1.30;;;12.10;31.60;;;;;;5032605;28;20509;-73
2023/03/16 10:45:22;;;;;;;3.15;1.00;;;12.00;31.90;;;;;;5031538;28;20025;-74
2023/03/16 10:47:48;;;;;;;1.88;0.90;;;12.20;31.60;;;;;;5031783;28;20021;-76
2023/03/16 10:50:19;;;;;;;0.60;0.55;;;12.30;31.70;;;;;;5031462;28;20083;-76
2023/03/16 10:52:49;;;;;;;1.50;0.85;;;12.40;31.90;;;;;;5032858;28;20018;-76
2023/03/16 10:55:16;;;;;;;2.22;0.85;;;12.60;31.50;;;;;;5033254;28;20022;-74
2023/03/16 10:57:47;;;;;;;1.15;0.88;;;12.70;30.40;;;;;;5031335;28;20068;-78
2023/03/16 11:00:19;;;;;;;3.97;0.85;;;12.70;29.40;;;;;;5031035;28;20470;-78
2023/03/16 11:02:46;;;;;;;1.60;0.80;;;12.50;28.20;;;;;;5030835;28;20458;-75
2023/03/16 11:05:13;;;;;;;1.42;0.70;;;12.50;28.80;;;;;;5031136;28;20376;-77
2023/03/16 11:07:38;;;;;;;4.30;1.33;;;12.40;27.90;;;;;;5030609;28;20047;-74
2023/03/16 11:10:22;;;;;;;1.75;0.80;;;12.30;28.60;;;;;;5030801;28;20471;-78
2023/03/16 11:12:50;;;;;;;2.85;1.00;;;12.20;27.60;;;;;;5030788;28;20489;-78
2023/03/16 11:15:17;;;;;;;1.10;0.70;;;12.00;28.60;;;;;;5030778;28;20374;-78
2023/03/16 11:17:48;;;;;;;1.00;0.90;;;12.20;28.40;;;;;;5032110;28;20032;-78
2023/03/16 11:20:18;;;;;;;3.00;1.10;;;12.30;28.20;;;;;;5031100;28;20018;-75
2023/03/16 11:22:47;;;;;;;2.42;1.17;;;12.40;28.20;;;;;;5031055;28;20041;-75
2023/03/16 11:25:27;;;;;;;3.13;1.20;;;12.60;27.70;;;;;;5031749;28;20103;-75
2023/03/16 11:28:02;;;;;;;1.25;0.93;;;12.60;27.30;;;;;;5033335;28;20064;-78
2023/03/16 11:30:34;;;;;;;1.60;0.95;;;12.60;27.50;;;;;;5036288;28;20025;-79
2023/03/16 11:33:00;;;;;;;2.47;1.00;;;12.90;28.20;;;;;;5034961;28;20032;-80
2023/03/16 11:35:35;;;;;;;1.20;1.00;;;12.80;27.10;;;;;;5034327;28;20048;-76
2023/03/16 11:38:25;;;;;;;1.98;1.13;;;12.90;27.10;;;;;;5034212;28;20192;-76
2023/03/16 11:41:09;;;;;;;1.77;1.15;;;13.20;26.80;;;;;;5033854;28;20029;-74
2023/03/16 11:43:48;;;;;;;1.42;1.00;;;13.50;27.10;;;;;;5035238;28;20524;-74
2023/03/16 11:46:40;;;;;;;4.05;1.00;;;13.70;26.10;;;;;;5034302;28;20087;-76
2023/03/16 11:49:41;;;;;;;2.10;1.05;;;13.60;24.40;;;;;;5033513;28;20075;-75
2023/03/16 11:52:31;;;;;;;2.85;1.15;;;13.50;25.70;;;;;;5033617;28;20021;-75
2023/03/16 11:55:11;;;;;;;2.28;0.80;;;13.70;26.10;;;;;;5033164;28;20067;-76
2023/03/16 11:57:50;;;;;;;4.68;1.25;;;14.20;25.60;;;;;;5033991;28;20018;-75
2023/03/16 12:00:38;;;;;;;1.15;0.90;;;14.20;23.40;;;;;;5031257;28;20064;-75
2023/03/16 12:03:26;;;;;;;2.17;0.93;;;14.30;23.10;;;;;;5033038;28;20041;-75
2023/03/16 12:06:10;;;;;;;0.80;0.70;;;14.20;23.60;;;;;;5034921;28;20029;-75
2023/03/16 12:09:13;;;;;;;1.50;1.02;;;14.20;22.60;;;;;;5033746;28;20025;-75
2023/03/16 12:11:43;;;;;;;3.03;0.60;;;14.10;22.10;;;;;;5034474;28;20033;-78
2023/03/16 12:14:23;;;;;;;3.88;1.10;;;14.30;22.60;;;;;;5033368;28;20025;-78
2023/03/16 12:16:58;;;;;;;1.95;0.88;;;14.60;22.80;;;;;;5033675;28;20497;-80
2023/03/16 12:19:49;;;;;;;2.30;0.80;;;14.50;21.50;;;;;;5033421;28;20481;-82
2023/03/16 12:22:41;;;;;;;2.35;0.50;;;14.70;22.10;;;;;;5033490;28;20068;-81
2023/03/16 12:25:18;;;;;;;2.38;0.80;;;15.20;22.70;;;;;;5032853;28;20040;-77
2023/03/16 12:27:46;;;;;;;0.77;0.45;;;15.60;20.70;;;;;;5032838;28;20025;-75
2023/03/16 12:30:49;;;;;;;1.65;0.80;;;15.60;18.50;;;;;;5032599;28;20470;-79
2023/03/16 12:33:27;;;;;;;0.90;0.80;;;16.00;22.80;;;;;;5033830;28;20052;-74
2023/03/16 12:36:03;;;;;;;1.27;0.60;;;15.80;20.00;;;;;;5032271;28;20496;-75
2023/03/16 12:39:02;;;;;;;4.63;1.25;;;16.20;21.40;;;;;;5033539;28;20076;-74
2023/03/16 12:42:11;;;;;;;2.65;0.70;;;16.80;21.40;;;;;;5021686;28;20049;-74
2023/03/16 12:45:01;;;;;;;0.98;0.70;;;17.30;18.50;;;;;;5010158;28;20501;-76
2023/03/16 12:47:42;;;;;;;1.90;0.77;;;16.90;17.90;;;;;;5034138;28;20044;-75
2023/03/16 12:50:17;;;;;;;1.20;0.70;;;16.70;18.20;;;;;;5032896;28;20021;-75
2023/03/16 12:52:48;;;;;;;0.98;0.65;;;17.10;18.20;;;;;;5033132;28;20059;-74
2023/03/16 12:55:23;;;;;;;2.40;0.75;;;17.40;18.80;;;;;;5034067;28;20061;-75
2023/03/16 12:57:50;;;;;;;1.33;1.07;;;17.40;17.70;;;;;;5034429;28;20128;-72
2023/03/16 13:00:18;;;;;;;1.80;0.95;;;17.10;19.10;;;;;;5032893;28;20520;-74
2023/03/16 13:02:50;;;;;;;1.02;0.93;;;17.10;19.90;;;;;;5033946;28;20498;-73